createdAt,value
2022-12-14T00:02:27.341Z,51.59
2022-12-14T00:04:54.426Z,51.47
2022-12-14T00:07:21.931Z,51.47
2022-12-14T00:09:49.090Z,51.63
2022-12-14T00:12:16.343Z,51.87
2022-12-14T00:14:43.366Z,51.96
2022-12-14T00:17:10.327Z,51.67
2022-12-14T00:19:37.220Z,52.05
2022-12-14T00:22:04.112Z,51.82
2022-12-14T00:24:31.210Z,51.87
2022-12-14T00:26:58.202Z,52.28
2022-12-14T00:29:25.208Z,52.06
2022-12-14T00:31:52.212Z,52.03
2022-12-14T00:34:19.083Z,52.21
2022-12-14T00:36:45.928Z,52.29
2022-12-14T00:39:12.749Z,52.54
2022-12-14T00:41:39.748Z,52.46
2022-12-14T00:44:06.757Z,52.53
2022-12-14T00:46:33.686Z,52.47
2022-12-14T00:49:00.645Z,52.72
2022-12-14T00:51:27.758Z,52.78
2022-12-14T00:53:55.117Z,52.57
2022-12-14T00:56:22.023Z,52.62
2022-12-14T00:58:53.531Z,52.87
2022-12-14T01:01:22.050Z,53.09
2022-12-14T01:03:49.906Z,53.01
2022-12-14T01:06:19.960Z,52.88
2022-12-14T01:08:47.802Z,53.26
2022-12-14T01:11:15.658Z,53.07
2022-12-14T01:13:43.013Z,53.32
2022-12-14T01:16:12.865Z,53.24
2022-12-14T01:18:42.612Z,53.40
2022-12-14T01:21:18.372Z,53.23
2022-12-14T01:23:47.078Z,53.44
2022-12-14T01:26:15.967Z,53.55
2022-12-14T01:28:43.037Z,53.58
2022-12-14T01:31:13.344Z,53.68
2022-12-14T01:33:40.450Z,53.58
2022-12-14T01:36:12.580Z,53.82
2022-12-14T01:38:39.979Z,53.65
2022-12-14T01:41:08.992Z,53.79
2022-12-14T01:43:52.125Z,53.61
2022-12-14T01:46:28.568Z,54.04
2022-12-14T01:49:02.183Z,53.82
2022-12-14T01:51:31.419Z,53.72
2022-12-14T01:54:00.598Z,53.92
2022-12-14T01:56:27.646Z,54.06
2022-12-14T01:58:56.650Z,53.96
2022-12-14T02:01:23.692Z,54.02
2022-12-14T02:03:53.118Z,53.95
2022-12-14T02:06:26.888Z,53.95
2022-12-14T02:08:55.193Z,54.21
2022-12-14T02:11:40.067Z,54.04
2022-12-14T02:14:06.873Z,54.20
2022-12-14T02:16:33.871Z,54.14
2022-12-14T02:19:00.910Z,54.16
2022-12-14T02:21:46.520Z,54.09
2022-12-14T02:25:07.304Z,54.14
2022-12-14T02:28:02.062Z,54.44
2022-12-14T02:30:35.776Z,54.26
2022-12-14T02:33:17.789Z,54.15
2022-12-14T02:36:07.655Z,54.23
2022-12-14T02:38:40.190Z,54.45
2022-12-14T02:41:22.247Z,54.33
2022-12-14T02:43:57.808Z,54.21
2022-12-14T02:46:39.651Z,54.31
2022-12-14T02:49:37.482Z,54.25
2022-12-14T02:52:17.764Z,54.53
2022-12-14T02:54:56.228Z,54.63
2022-12-14T02:57:29.873Z,54.19
2022-12-14T03:00:01.028Z,54.62
2022-12-14T03:02:29.741Z,54.61
2022-12-14T03:04:57.044Z,54.66
2022-12-14T03:07:40.920Z,54.59
2022-12-14T03:10:48.345Z,54.47
2022-12-14T03:13:31.108Z,54.69
2022-12-14T03:16:04.493Z,54.80
2022-12-14T03:18:37.073Z,54.53
2022-12-14T03:21:08.138Z,54.66
2022-12-14T03:23:41.473Z,54.77
2022-12-14T03:26:18.630Z,54.65
2022-12-14T03:28:57.570Z,54.67
2022-12-14T03:31:49.144Z,54.80
2022-12-14T03:34:21.593Z,54.87
2022-12-14T03:37:00.296Z,54.84
2022-12-14T03:39:32.385Z,54.84
2022-12-14T03:42:18.594Z,54.64
2022-12-14T03:44:57.450Z,54.94
2022-12-14T03:47:44.251Z,54.95
2022-12-14T03:50:14.657Z,54.87
2022-12-14T03:53:01.328Z,54.95
2022-12-14T03:56:02.667Z,54.96
2022-12-14T03:58:29.445Z,54.87
2022-12-14T04:01:21.703Z,54.88
2022-12-14T04:04:01.447Z,55.09
2022-12-14T04:06:43.998Z,55.03
2022-12-14T04:09:29.376Z,55.26
2022-12-14T04:12:25.197Z,55.26
2022-12-14T04:15:30.546Z,55.21
2022-12-14T04:18:20.935Z,54.96
2022-12-14T04:21:20.217Z,54.98
2022-12-14T04:24:09.503Z,55.21
2022-12-14T04:26:42.943Z,55.09
2022-12-14T04:29:34.265Z,55.15
2022-12-14T04:32:27.386Z,55.32
2022-12-14T04:35:19.364Z,54.99
2022-12-14T04:37:51.151Z,55.05
2022-12-14T04:40:24.358Z,55.40
2022-12-14T04:43:03.468Z,55.13
2022-12-14T04:45:35.526Z,55.23
2022-12-14T04:48:39.786Z,55.02
2022-12-14T04:51:11.348Z,55.10
2022-12-14T04:53:41.289Z,55.17
2022-12-14T04:56:20.497Z,55.22
2022-12-14T04:58:47.518Z,55.12
2022-12-14T05:01:17.248Z,54.92
2022-12-14T05:03:59.601Z,54.94
2022-12-14T05:06:41.673Z,54.85
2022-12-14T05:09:29.615Z,55.04
2022-12-14T05:12:11.056Z,55.10
2022-12-14T05:14:41.669Z,54.74
2022-12-14T05:17:09.728Z,54.93
2022-12-14T05:19:37.981Z,54.75
2022-12-14T05:22:07.566Z,54.71
2022-12-14T05:24:34.465Z,54.86
2022-12-14T05:27:01.450Z,54.44
2022-12-14T05:29:28.317Z,54.50
2022-12-14T05:31:55.788Z,54.53
2022-12-14T05:34:22.710Z,53.65
2022-12-14T05:36:49.966Z,53.65
2022-12-14T05:39:17.118Z,53.48
2022-12-14T05:41:44.344Z,53.52
2022-12-14T05:44:11.398Z,53.19
2022-12-14T05:46:38.405Z,53.00
2022-12-14T05:49:05.320Z,53.08
2022-12-14T05:51:32.336Z,53.33
2022-12-14T05:53:59.356Z,53.35
2022-12-14T05:56:26.311Z,53.24
2022-12-14T05:58:53.281Z,53.39
2022-12-14T06:01:20.503Z,53.07
2022-12-14T06:03:48.365Z,53.50
2022-12-14T06:06:15.574Z,53.43
2022-12-14T06:08:44.854Z,53.38
2022-12-14T06:11:22.169Z,53.32
2022-12-14T06:13:49.800Z,53.49
2022-12-14T06:16:23.308Z,53.16
2022-12-14T06:18:56.069Z,53.27
2022-12-14T06:21:32.111Z,52.89
2022-12-14T06:23:59.952Z,52.48
2022-12-14T06:26:28.152Z,52.45
2022-12-14T06:28:56.084Z,52.22
2022-12-14T06:31:29.180Z,52.28
2022-12-14T06:34:02.028Z,52.64
2022-12-14T06:36:31.706Z,53.32
2022-12-14T06:39:01.847Z,53.17
2022-12-14T06:41:29.122Z,53.06
2022-12-14T06:43:56.995Z,53.18
2022-12-14T06:46:25.708Z,53.13
2022-12-14T06:48:54.341Z,53.04
2022-12-14T06:51:22.178Z,53.03
2022-12-14T06:53:53.559Z,53.21
2022-12-14T06:56:21.015Z,53.36
2022-12-14T06:58:48.541Z,53.24
2022-12-14T07:01:18.279Z,53.09
2022-12-14T07:03:49.915Z,53.32
2022-12-14T07:06:17.678Z,53.22
2022-12-14T07:08:45.077Z,53.04
2022-12-14T07:11:14.056Z,53.43
2022-12-14T07:13:42.617Z,53.25
2022-12-14T07:16:15.838Z,53.29
2022-12-14T07:18:43.115Z,53.41
2022-12-14T07:21:12.455Z,53.44
2022-12-14T07:23:41.148Z,53.61
2022-12-14T07:26:20.113Z,53.39
2022-12-14T07:28:47.734Z,53.31
2022-12-14T07:31:21.530Z,53.40
2022-12-14T07:33:49.163Z,53.69
2022-12-14T07:36:18.538Z,53.36
2022-12-14T07:38:47.589Z,53.36
2022-12-14T07:41:23.713Z,53.41
2022-12-14T07:43:52.165Z,53.41
2022-12-14T07:46:25.028Z,53.30
2022-12-14T07:48:54.988Z,53.33
2022-12-14T07:51:26.175Z,53.22
2022-12-14T07:53:53.428Z,53.43
2022-12-14T07:56:26.095Z,53.27
2022-12-14T07:58:56.499Z,53.09
2022-12-14T08:01:25.600Z,53.48
2022-12-14T08:03:56.722Z,53.26
2022-12-14T08:06:28.648Z,53.29
2022-12-14T08:09:01.025Z,53.28
2022-12-14T08:11:29.321Z,53.23
2022-12-14T08:14:03.003Z,52.99
2022-12-14T08:16:34.871Z,53.20
2022-12-14T08:19:03.553Z,53.23
2022-12-14T08:21:30.829Z,52.80
2022-12-14T08:23:59.483Z,52.91
2022-12-14T08:26:30.198Z,52.83
2022-12-14T08:29:02.267Z,53.02
2022-12-14T08:31:29.639Z,52.69
2022-12-14T08:33:59.224Z,52.80
2022-12-14T08:36:31.408Z,53.13
2022-12-14T08:39:01.672Z,52.98
2022-12-14T08:41:30.612Z,53.14
2022-12-14T08:43:59.983Z,52.36
2022-12-14T08:46:29.429Z,52.06
2022-12-14T08:48:57.783Z,52.53
2022-12-14T08:51:26.679Z,52.79
2022-12-14T08:53:54.918Z,52.89
2022-12-14T08:56:25.042Z,52.72
2022-12-14T08:58:52.639Z,53.43
2022-12-14T09:01:32.657Z,53.36
2022-12-14T09:04:08.886Z,53.25
2022-12-14T09:06:40.098Z,53.61
2022-12-14T09:09:15.706Z,53.19
2022-12-14T09:11:45.330Z,52.52
2022-12-14T09:14:13.377Z,53.15
2022-12-14T09:16:40.639Z,53.45
2022-12-14T09:19:07.883Z,53.38
2022-12-14T09:21:35.146Z,53.71
2022-12-14T09:24:02.166Z,53.46
2022-12-14T09:26:30.091Z,53.46
2022-12-14T09:28:58.337Z,53.34
2022-12-14T09:31:27.310Z,53.58
2022-12-14T09:33:55.765Z,53.64
2022-12-14T09:36:28.595Z,53.38
2022-12-14T09:38:57.169Z,53.51
2022-12-14T09:41:41.498Z,53.21
2022-12-14T09:44:14.606Z,53.06
2022-12-14T09:46:54.055Z,52.97
2022-12-14T09:49:27.262Z,52.77
2022-12-14T09:51:57.095Z,53.19
2022-12-14T09:54:28.656Z,53.26
2022-12-14T09:57:01.400Z,53.36
2022-12-14T09:59:32.098Z,53.12
2022-12-14T10:02:43.913Z,52.79
2022-12-14T10:05:32.466Z,53.31
2022-12-14T10:08:14.452Z,53.32
2022-12-14T10:11:03.122Z,52.80
2022-12-14T10:13:42.508Z,53.14
2022-12-14T10:16:32.516Z,53.11
2022-12-14T10:19:33.647Z,53.00
2022-12-14T10:22:05.596Z,52.99
2022-12-14T10:25:17.218Z,52.86
2022-12-14T10:28:09.800Z,52.80
2022-12-14T10:30:36.693Z,52.98
2022-12-14T10:33:17.617Z,52.79
2022-12-14T10:35:55.532Z,52.44
2022-12-14T10:38:54.804Z,52.37
2022-12-14T10:41:25.319Z,52.65
2022-12-14T10:44:18.938Z,51.26
2022-12-14T10:46:52.437Z,51.43
2022-12-14T10:49:33.777Z,50.35
2022-12-14T10:52:19.130Z,50.93
2022-12-14T10:55:02.586Z,50.86
2022-12-14T10:57:29.802Z,51.35
2022-12-14T11:00:08.262Z,50.85
2022-12-14T11:02:45.174Z,51.22
2022-12-14T11:05:42.066Z,51.53
2022-12-14T11:08:10.403Z,51.30
2022-12-14T11:10:41.108Z,51.43
2022-12-14T11:13:14.239Z,50.94
2022-12-14T11:15:44.019Z,50.85
2022-12-14T11:18:18.212Z,50.92
2022-12-14T11:20:54.839Z,50.63
2022-12-14T11:23:27.517Z,50.81
2022-12-14T11:25:59.283Z,51.05
2022-12-14T11:28:31.324Z,51.43
2022-12-14T11:31:13.824Z,51.15
2022-12-14T11:33:49.963Z,51.44
2022-12-14T11:36:36.581Z,51.61
2022-12-14T11:39:16.087Z,51.51
2022-12-14T11:42:04.261Z,50.77
2022-12-14T11:44:39.074Z,51.29
2022-12-14T11:47:13.523Z,50.95
2022-12-14T11:49:41.208Z,50.83
2022-12-14T11:52:18.651Z,50.78
2022-12-14T11:55:09.817Z,51.29
2022-12-14T11:57:40.444Z,51.54
2022-12-14T12:00:29.607Z,51.66
2022-12-14T12:03:07.150Z,51.32
2022-12-14T12:05:40.015Z,51.27
2022-12-14T12:08:25.706Z,51.01
2022-12-14T12:11:01.985Z,50.85
2022-12-14T12:13:32.375Z,50.92
2022-12-14T12:16:07.127Z,50.27
2022-12-14T12:18:46.506Z,50.65
2022-12-14T12:21:35.617Z,50.45
2022-12-14T12:24:08.216Z,50.40
2022-12-14T12:26:44.101Z,50.03
2022-12-14T12:29:20.113Z,50.18
2022-12-14T12:32:20.166Z,49.82
2022-12-14T12:35:15.062Z,50.23
2022-12-14T12:37:55.180Z,49.64
2022-12-14T12:40:33.748Z,49.62
2022-12-14T12:43:06.518Z,50.07
2022-12-14T12:45:46.229Z,49.70
2022-12-14T12:48:25.832Z,49.72
2022-12-14T12:51:00.509Z,49.75
2022-12-14T12:53:44.852Z,49.76
2022-12-14T12:56:31.333Z,49.53
2022-12-14T12:59:00.500Z,49.51
2022-12-14T13:01:40.325Z,49.65
2022-12-14T13:04:14.430Z,49.51
2022-12-14T13:06:44.654Z,49.50
2022-12-14T13:09:18.588Z,49.18
2022-12-14T13:11:46.571Z,49.28
2022-12-14T13:14:50.027Z,49.35
2022-12-14T13:17:44.083Z,49.35
2022-12-14T13:20:38.599Z,48.98
2022-12-14T13:26:55.597Z,49.08
2022-12-14T13:29:14.489Z,49.20
2022-12-14T13:31:46.486Z,49.50
2022-12-14T13:34:48.207Z,49.71
2022-12-14T13:37:34.701Z,49.87
2022-12-14T13:40:20.265Z,49.87
2022-12-14T13:42:53.876Z,50.11
2022-12-14T13:45:36.423Z,49.80
2022-12-14T13:48:16.528Z,49.59
2022-12-14T13:50:54.368Z,49.65
2022-12-14T13:53:50.609Z,49.79
2022-12-14T13:56:20.416Z,49.45
2022-12-14T13:58:51.207Z,49.54
2022-12-14T14:01:47.661Z,48.70
2022-12-14T14:04:20.695Z,48.98
2022-12-14T14:06:56.692Z,49.26
2022-12-14T14:09:33.415Z,49.68
2022-12-14T14:12:24.333Z,49.10
2022-12-14T14:14:52.676Z,49.38
2022-12-14T14:17:38.313Z,49.50
2022-12-14T14:20:40.789Z,49.83
2022-12-14T14:23:20.708Z,48.72
2022-12-14T14:26:14.486Z,45.53
2022-12-14T14:28:42.529Z,46.73
2022-12-14T14:31:11.173Z,47.17
2022-12-14T14:33:51.281Z,47.07
2022-12-14T14:36:34.453Z,47.54
2022-12-14T14:39:54.965Z,47.83
2022-12-14T14:42:26.450Z,48.54
2022-12-14T14:44:57.618Z,48.79
2022-12-14T14:47:32.736Z,48.40
2022-12-14T14:50:04.300Z,48.77
2022-12-14T14:52:40.479Z,48.75
2022-12-14T14:58:25.625Z,48.91
2022-12-14T15:01:00.503Z,48.84
2022-12-14T15:03:55.642Z,49.37
2022-12-14T15:06:30.184Z,49.28
2022-12-14T15:09:06.010Z,49.21
2022-12-14T15:11:52.465Z,49.34
2022-12-14T15:14:25.319Z,49.40
2022-12-14T15:16:52.526Z,49.43
2022-12-14T15:19:23.921Z,50.09
2022-12-14T15:21:58.189Z,50.30
2022-12-14T15:24:27.494Z,49.69
2022-12-14T15:26:56.521Z,49.47
2022-12-14T15:29:29.498Z,49.82
2022-12-14T15:32:01.079Z,49.57
2022-12-14T15:34:29.040Z,49.18
2022-12-14T15:36:58.132Z,49.48
2022-12-14T15:39:40.987Z,49.40
2022-12-14T15:42:18.630Z,49.76
2022-12-14T15:44:55.964Z,49.54
2022-12-14T15:47:31.929Z,49.40
2022-12-14T15:50:22.271Z,49.39
2022-12-14T15:52:52.163Z,49.05
2022-12-14T15:55:33.286Z,49.25
2022-12-14T15:58:27.034Z,49.17
2022-12-14T16:00:58.595Z,49.38
2022-12-14T16:03:40.572Z,49.02
2022-12-14T16:06:10.910Z,49.26
2022-12-14T16:08:44.311Z,48.39
2022-12-14T16:11:23.530Z,47.85
2022-12-14T16:13:50.743Z,47.97
2022-12-14T16:16:18.720Z,48.13
2022-12-14T16:18:52.294Z,48.49
2022-12-14T16:21:33.029Z,48.50
2022-12-14T16:24:13.429Z,48.72
2022-12-14T16:26:40.550Z,48.52
2022-12-14T16:29:29.554Z,48.75
2022-12-14T16:32:16.573Z,47.59
2022-12-14T16:34:59.031Z,48.32
2022-12-14T16:37:34.875Z,48.45
2022-12-14T16:40:02.709Z,48.45
2022-12-14T16:42:32.932Z,48.58
2022-12-14T16:45:00.625Z,48.79
2022-12-14T16:48:10.639Z,49.08
2022-12-14T16:50:56.694Z,49.42
2022-12-14T16:53:35.361Z,49.70
2022-12-14T16:56:33.955Z,49.54
2022-12-14T16:59:07.537Z,49.62
2022-12-14T17:01:44.731Z,49.54
2022-12-14T17:04:14.877Z,49.48
2022-12-14T17:06:49.554Z,49.71
2022-12-14T17:09:23.051Z,49.66
2022-12-14T17:11:53.340Z,49.45
2022-12-14T17:14:20.925Z,49.56
2022-12-14T17:16:51.119Z,49.82
2022-12-14T17:19:26.907Z,49.65
2022-12-14T17:21:54.190Z,49.87
2022-12-14T17:24:23.401Z,49.74
2022-12-14T17:26:51.775Z,49.94
2022-12-14T17:29:24.640Z,50.02
2022-12-14T17:31:56.326Z,50.10
2022-12-14T17:34:24.114Z,50.00
2022-12-14T17:36:51.762Z,50.07
2022-12-14T17:39:18.856Z,50.03
2022-12-14T17:41:48.286Z,49.92
2022-12-14T17:44:18.643Z,50.29
2022-12-14T17:46:50.312Z,50.08
2022-12-14T17:49:34.466Z,50.61
2022-12-14T17:52:07.616Z,50.70
2022-12-14T17:54:35.710Z,50.73
2022-12-14T17:57:03.825Z,50.77
2022-12-14T17:59:31.080Z,50.98
2022-12-14T18:01:58.580Z,50.79
2022-12-14T18:04:26.616Z,50.91
2022-12-14T18:06:53.930Z,50.57
2022-12-14T18:09:21.495Z,50.40
2022-12-14T18:12:21.027Z,50.33
2022-12-14T18:14:36.032Z,50.36
2022-12-14T18:17:06.737Z,50.26
2022-12-14T18:19:39.639Z,50.35
2022-12-14T18:22:08.134Z,50.39
2022-12-14T18:24:35.367Z,49.99
2022-12-14T18:27:02.655Z,50.39
2022-12-14T18:29:29.906Z,50.10
2022-12-14T18:31:57.277Z,50.15
2022-12-14T18:34:24.813Z,50.11
2022-12-14T18:36:52.352Z,49.99
2022-12-14T18:39:19.563Z,49.95
2022-12-14T18:41:47.001Z,50.16
2022-12-14T18:44:14.266Z,50.02
2022-12-14T18:46:41.478Z,49.95
2022-12-14T18:49:08.887Z,49.85
2022-12-14T18:51:36.835Z,49.66
2022-12-14T18:54:04.819Z,49.55
2022-12-14T18:56:35.788Z,49.40
2022-12-14T18:59:04.973Z,49.33
2022-12-14T19:01:32.327Z,49.17
2022-12-14T19:03:59.602Z,49.29
2022-12-14T19:06:44.661Z,49.41
2022-12-14T19:09:14.315Z,49.31
2022-12-14T19:11:42.854Z,49.76
2022-12-14T19:14:10.909Z,49.96
2022-12-14T19:16:38.382Z,49.19
2022-12-14T19:19:06.430Z,49.03
2022-12-14T19:21:35.704Z,48.99
2022-12-14T19:24:03.696Z,48.98
2022-12-14T19:26:31.574Z,49.11
2022-12-14T19:29:02.061Z,49.08
2022-12-14T19:31:30.497Z,49.14
2022-12-14T19:33:58.602Z,49.85
2022-12-14T19:36:26.739Z,49.61
2022-12-14T19:38:54.349Z,49.53
2022-12-14T19:41:23.694Z,49.92
2022-12-14T19:43:51.090Z,49.42
2022-12-14T19:46:19.884Z,48.84
2022-12-14T19:48:47.536Z,48.52
2022-12-14T19:51:19.622Z,48.53
2022-12-14T19:53:48.797Z,48.58
2022-12-14T19:56:19.519Z,48.94
2022-12-14T19:58:48.834Z,49.55
2022-12-14T20:01:21.565Z,49.77
2022-12-14T20:03:50.120Z,49.95
2022-12-14T20:06:18.237Z,50.01
2022-12-14T20:08:49.543Z,50.30
2022-12-14T20:11:18.158Z,50.02
2022-12-14T20:13:45.983Z,49.93
2022-12-14T20:16:17.838Z,50.22
2022-12-14T20:18:46.252Z,50.27
2022-12-14T20:21:20.251Z,50.04
2022-12-14T20:23:49.805Z,50.21
2022-12-14T20:26:20.574Z,50.27
2022-12-14T20:28:49.294Z,50.20
2022-12-14T20:31:17.550Z,50.48
2022-12-14T20:33:46.074Z,50.13
2022-12-14T20:36:17.071Z,50.04
2022-12-14T20:38:45.910Z,48.75
2022-12-14T20:41:17.733Z,48.16
2022-12-14T20:43:49.330Z,48.71
2022-12-14T20:46:34.247Z,49.10
2022-12-14T20:49:09.848Z,49.14
2022-12-14T20:51:38.964Z,49.29
2022-12-14T20:54:09.394Z,49.25
2022-12-14T20:56:38.242Z,49.23
2022-12-14T20:59:23.062Z,49.38
2022-12-14T21:01:55.792Z,49.30
2022-12-14T21:04:23.832Z,49.22
2022-12-14T21:06:52.656Z,48.96
2022-12-14T21:09:21.978Z,49.22
2022-12-14T21:12:12.192Z,47.63
2022-12-14T21:14:43.021Z,48.24
2022-12-14T21:17:14.861Z,48.13
2022-12-14T21:19:46.121Z,48.42
2022-12-14T21:22:17.620Z,48.33
2022-12-14T21:25:04.794Z,48.69
2022-12-14T21:27:34.841Z,48.04
2022-12-14T21:30:03.056Z,47.47
2022-12-14T21:32:31.037Z,47.48
2022-12-14T21:34:58.811Z,47.43
2022-12-14T21:37:29.912Z,47.70
2022-12-14T21:39:58.782Z,47.29
2022-12-14T21:42:27.861Z,47.84
2022-12-14T21:44:58.086Z,47.95
2022-12-14T21:47:33.825Z,47.81
2022-12-14T21:50:02.894Z,48.04
2022-12-14T21:52:33.569Z,48.26
2022-12-14T21:55:01.686Z,48.26
2022-12-14T21:57:50.330Z,48.18
2022-12-14T22:00:21.112Z,48.09
2022-12-14T22:02:49.562Z,47.66
2022-12-14T22:05:18.408Z,47.86
2022-12-14T22:07:48.080Z,47.70
2022-12-14T22:10:24.444Z,47.72
2022-12-14T22:12:52.804Z,47.85
2022-12-14T22:15:20.363Z,48.03
2022-12-14T22:17:47.784Z,48.05
2022-12-14T22:20:15.559Z,48.05
2022-12-14T22:22:44.221Z,47.99
2022-12-14T22:25:13.342Z,48.04
2022-12-14T22:27:40.954Z,48.04
2022-12-14T22:30:09.780Z,48.30
2022-12-14T22:32:37.561Z,48.30
2022-12-14T22:35:05.670Z,48.16
2022-12-14T22:37:34.548Z,48.31
2022-12-14T22:40:02.668Z,48.58
2022-12-14T22:42:29.719Z,48.58
2022-12-14T22:44:56.794Z,48.77
2022-12-14T22:47:23.728Z,48.61
2022-12-14T22:49:50.726Z,48.73
2022-12-14T22:52:24.335Z,48.72
2022-12-14T22:54:52.176Z,48.98
2022-12-14T22:57:21.453Z,48.81
2022-12-14T22:59:55.102Z,48.93
2022-12-14T23:02:23.057Z,49.04
2022-12-14T23:04:50.469Z,49.17
2022-12-14T23:07:17.923Z,48.96
2022-12-14T23:10:04.063Z,49.39
2022-12-14T23:12:49.741Z,49.25
2022-12-14T23:15:35.452Z,49.52
2022-12-14T23:18:25.616Z,49.32
2022-12-14T23:21:11.934Z,49.63
2022-12-14T23:23:59.473Z,49.65
2022-12-14T23:26:45.856Z,49.63
2022-12-14T23:29:31.882Z,49.81
2022-12-14T23:32:17.472Z,49.74
2022-12-14T23:35:03.319Z,50.05
2022-12-14T23:37:48.892Z,49.84
2022-12-14T23:40:35.858Z,49.97
2022-12-14T23:43:33.630Z,50.29
2022-12-14T23:46:20.507Z,50.09
2022-12-14T23:49:09.316Z,50.28
2022-12-14T23:51:59.785Z,50.18
2022-12-14T23:54:45.548Z,50.44
2022-12-14T23:57:31.374Z,50.42
